sensor_id;sensor_type;location;lat;lon;timestamp;P1;durP1;ratioP1;P2;durP2;ratioP2
8139;SDS011;4111;50.972;7.072;2023-02-15T00:01:38;25.63;;;18.83;;
8139;SDS011;4111;50.972;7.072;2023-02-15T00:04:05;24.40;;;19.40;;
8139;SDS011;4111;50.972;7.072;2023-02-15T00:06:33;25.53;;;19.03;;
8139;SDS011;4111;50.972;7.072;2023-02-15T00:09:00;23.80;;;18.57;;
8139;SDS011;4111;50.972;7.072;2023-02-15T00:11:27;24.37;;;18.77;;
8139;SDS011;4111;50.972;7.072;2023-02-15T00:14:07;23.27;;;18.60;;
8139;SDS011;4111;50.972;7.072;2023-02-15T00:16:39;24.23;;;18.67;;
8139;SDS011;4111;50.972;7.072;2023-02-15T00:19:07;27.30;;;19.70;;
8139;SDS011;4111;50.972;7.072;2023-02-15T00:21:34;24.17;;;18.27;;
8139;SDS011;4111;50.972;7.072;2023-02-15T00:24:02;22.53;;;18.20;;
8139;SDS011;4111;50.972;7.072;2023-02-15T00:26:30;25.07;;;19.27;;
8139;SDS011;4111;50.972;7.072;2023-02-15T00:28:56;25.93;;;19.63;;
8139;SDS011;4111;50.972;7.072;2023-02-15T00:31:27;25.90;;;18.60;;
8139;SDS011;4111;50.972;7.072;2023-02-15T00:34:12;26.10;;;19.63;;
8139;SDS011;4111;50.972;7.072;2023-02-15T00:36:41;25.00;;;19.57;;
8139;SDS011;4111;50.972;7.072;2023-02-15T00:39:08;25.17;;;19.80;;
8139;SDS011;4111;50.972;7.072;2023-02-15T00:41:35;26.70;;;19.57;;
8139;SDS011;4111;50.972;7.072;2023-02-15T00:44:01;25.77;;;18.87;;
8139;SDS011;4111;50.972;7.072;2023-02-15T00:46:28;24.77;;;18.50;;
8139;SDS011;4111;50.972;7.072;2023-02-15T00:48:54;24.83;;;19.03;;
8139;SDS011;4111;50.972;7.072;2023-02-15T00:51:22;21.27;;;17.37;;
8139;SDS011;4111;50.972;7.072;2023-02-15T00:53:48;23.23;;;18.97;;
8139;SDS011;4111;50.972;7.072;2023-02-15T00:56:15;24.07;;;18.93;;
8139;SDS011;4111;50.972;7.072;2023-02-15T00:58:42;26.13;;;19.57;;
8139;SDS011;4111;50.972;7.072;2023-02-15T01:01:09;26.80;;;18.83;;
8139;SDS011;4111;50.972;7.072;2023-02-15T01:03:38;24.13;;;18.30;;
8139;SDS011;4111;50.972;7.072;2023-02-15T01:06:05;24.77;;;19.10;;
8139;SDS011;4111;50.972;7.072;2023-02-15T01:08:31;24.23;;;19.60;;
8139;SDS011;4111;50.972;7.072;2023-02-15T01:11:02;25.63;;;18.73;;
8139;SDS011;4111;50.972;7.072;2023-02-15T01:13:36;25.17;;;18.93;;
8139;SDS011;4111;50.972;7.072;2023-02-15T01:16:03;25.37;;;19.40;;
8139;SDS011;4111;50.972;7.072;2023-02-15T01:18:30;26.10;;;18.50;;
8139;SDS011;4111;50.972;7.072;2023-02-15T01:20:57;24.23;;;19.30;;
8139;SDS011;4111;50.972;7.072;2023-02-15T01:23:24;25.20;;;19.33;;
8139;SDS011;4111;50.972;7.072;2023-02-15T01:25:50;24.77;;;18.87;;
8139;SDS011;4111;50.972;7.072;2023-02-15T01:28:17;24.77;;;18.73;;
8139;SDS011;4111;50.972;7.072;2023-02-15T01:30:43;24.23;;;18.23;;
8139;SDS011;4111;50.972;7.072;2023-02-15T01:33:10;26.40;;;19.67;;
8139;SDS011;4111;50.972;7.072;2023-02-15T01:35:44;25.47;;;18.00;;
8139;SDS011;4111;50.972;7.072;2023-02-15T01:38:12;25.43;;;18.77;;
8139;SDS011;4111;50.972;7.072;2023-02-15T01:40:40;24.50;;;19.10;;
8139;SDS011;4111;50.972;7.072;2023-02-15T01:43:09;23.80;;;18.57;;
8139;SDS011;4111;50.972;7.072;2023-02-15T01:45:37;24.53;;;18.03;;
8139;SDS011;4111;50.972;7.072;2023-02-15T01:48:05;25.13;;;18.30;;
8139;SDS011;4111;50.972;7.072;2023-02-15T01:50:47;25.63;;;18.63;;
8139;SDS011;4111;50.972;7.072;2023-02-15T01:56:05;24.73;;;18.73;;
8139;SDS011;4111;50.972;7.072;2023-02-15T01:58:35;24.13;;;19.10;;
8139;SDS011;4111;50.972;7.072;2023-02-15T02:01:02;27.17;;;18.70;;
8139;SDS011;4111;50.972;7.072;2023-02-15T02:03:36;23.17;;;18.10;;
8139;SDS011;4111;50.972;7.072;2023-02-15T02:06:10;23.80;;;18.63;;
8139;SDS011;4111;50.972;7.072;2023-02-15T02:08:37;24.93;;;18.70;;
8139;SDS011;4111;50.972;7.072;2023-02-15T02:11:09;28.50;;;20.47;;
8139;SDS011;4111;50.972;7.072;2023-02-15T02:13:36;23.87;;;18.50;;
8139;SDS011;4111;50.972;7.072;2023-02-15T02:16:06;24.53;;;19.23;;
8139;SDS011;4111;50.972;7.072;2023-02-15T02:24:00;24.70;;;18.53;;
8139;SDS011;4111;50.972;7.072;2023-02-15T02:29:27;25.77;;;19.37;;
8139;SDS011;4111;50.972;7.072;2023-02-15T02:38:03;24.33;;;18.50;;
8139;SDS011;4111;50.972;7.072;2023-02-15T02:40:43;26.63;;;19.07;;
8139;SDS011;4111;50.972;7.072;2023-02-15T02:43:21;24.53;;;19.03;;
8139;SDS011;4111;50.972;7.072;2023-02-15T02:45:59;24.17;;;17.63;;
8139;SDS011;4111;50.972;7.072;2023-02-15T02:48:32;25.23;;;18.50;;
8139;SDS011;4111;50.972;7.072;2023-02-15T02:51:00;25.13;;;18.77;;
8139;SDS011;4111;50.972;7.072;2023-02-15T02:53:27;27.00;;;18.67;;
8139;SDS011;4111;50.972;7.072;2023-02-15T02:55:57;26.03;;;18.83;;
8139;SDS011;4111;50.972;7.072;2023-02-15T02:58:31;24.80;;;18.60;;
8139;SDS011;4111;50.972;7.072;2023-02-15T03:01:08;24.00;;;17.30;;
8139;SDS011;4111;50.972;7.072;2023-02-15T03:03:41;24.90;;;17.97;;
8139;SDS011;4111;50.972;7.072;2023-02-15T03:06:16;22.43;;;17.27;;
8139;SDS011;4111;50.972;7.072;2023-02-15T03:09:01;24.27;;;17.93;;
8139;SDS011;4111;50.972;7.072;2023-02-15T03:11:41;23.77;;;18.13;;
8139;SDS011;4111;50.972;7.072;2023-02-15T03:14:10;23.47;;;18.23;;
8139;SDS011;4111;50.972;7.072;2023-02-15T03:16:39;25.73;;;18.47;;
8139;SDS011;4111;50.972;7.072;2023-02-15T03:19:22;23.33;;;17.80;;
8139;SDS011;4111;50.972;7.072;2023-02-15T03:28:03;25.13;;;18.77;;
8139;SDS011;4111;50.972;7.072;2023-02-15T03:30:31;24.77;;;18.37;;
8139;SDS011;4111;50.972;7.072;2023-02-15T03:32:59;27.80;;;18.97;;
8139;SDS011;4111;50.972;7.072;2023-02-15T03:35:32;25.67;;;18.63;;
8139;SDS011;4111;50.972;7.072;2023-02-15T03:38:06;26.17;;;18.23;;
8139;SDS011;4111;50.972;7.072;2023-02-15T03:40:38;23.33;;;17.20;;
8139;SDS011;4111;50.972;7.072;2023-02-15T03:45:55;23.60;;;17.43;;
8139;SDS011;4111;50.972;7.072;2023-02-15T03:48:27;26.77;;;19.47;;
8139;SDS011;4111;50.972;7.072;2023-02-15T03:51:01;26.53;;;18.27;;
8139;SDS011;4111;50.972;7.072;2023-02-15T03:53:49;26.17;;;18.40;;
8139;SDS011;4111;50.972;7.072;2023-02-15T03:56:17;26.90;;;18.30;;
8139;SDS011;4111;50.972;7.072;2023-02-15T03:58:44;25.07;;;17.83;;
8139;SDS011;4111;50.972;7.072;2023-02-15T04:01:34;25.67;;;17.83;;
8139;SDS011;4111;50.972;7.072;2023-02-15T04:04:23;23.97;;;16.90;;
8139;SDS011;4111;50.972;7.072;2023-02-15T04:06:54;23.13;;;17.23;;
8139;SDS011;4111;50.972;7.072;2023-02-15T04:09:21;24.93;;;18.50;;
8139;SDS011;4111;50.972;7.072;2023-02-15T04:12:06;23.20;;;17.43;;
8139;SDS011;4111;50.972;7.072;2023-02-15T04:14:32;23.20;;;16.67;;
8139;SDS011;4111;50.972;7.072;2023-02-15T04:17:17;22.83;;;17.13;;
8139;SDS011;4111;50.972;7.072;2023-02-15T04:19:44;24.33;;;17.90;;
8139;SDS011;4111;50.972;7.072;2023-02-15T04:22:29;26.37;;;18.27;;
8139;SDS011;4111;50.972;7.072;2023-02-15T04:25:14;24.17;;;17.67;;
8139;SDS011;4111;50.972;7.072;2023-02-15T04:27:41;28.57;;;18.43;;
8139;SDS011;4111;50.972;7.072;2023-02-15T04:30:11;26.67;;;18.03;;
8139;SDS011;4111;50.972;7.072;2023-02-15T04:32:39;22.00;;;16.53;;
8139;SDS011;4111;50.972;7.072;2023-02-15T04:35:06;24.67;;;17.77;;
8139;SDS011;4111;50.972;7.072;2023-02-15T04:37:33;23.73;;;18.00;;
8139;SDS011;4111;50.972;7.072;2023-02-15T04:40:00;23.37;;;16.50;;
8139;SDS011;4111;50.972;7.072;2023-02-15T04:42:27;23.00;;;16.87;;
8139;SDS011;4111;50.972;7.072;2023-02-15T04:44:54;26.17;;;18.47;;
8139;SDS011;4111;50.972;7.072;2023-02-15T04:47:20;25.63;;;18.13;;
8139;SDS011;4111;50.972;7.072;2023-02-15T04:49:47;24.13;;;17.50;;
8139;SDS011;4111;50.972;7.072;2023-02-15T04:52:14;24.50;;;18.10;;
8139;SDS011;4111;50.972;7.072;2023-02-15T04:54:41;22.13;;;17.10;;
8139;SDS011;4111;50.972;7.072;2023-02-15T04:57:07;22.77;;;17.07;;
8139;SDS011;4111;50.972;7.072;2023-02-15T04:59:33;23.33;;;17.67;;
8139;SDS011;4111;50.972;7.072;2023-02-15T05:02:00;26.03;;;18.07;;
8139;SDS011;4111;50.972;7.072;2023-02-15T05:04:26;25.03;;;17.50;;
8139;SDS011;4111;50.972;7.072;2023-02-15T05:06:53;22.80;;;16.30;;
8139;SDS011;4111;50.972;7.072;2023-02-15T05:09:19;24.80;;;18.07;;
8139;SDS011;4111;50.972;7.072;2023-02-15T05:11:46;23.03;;;17.10;;
8139;SDS011;4111;50.972;7.072;2023-02-15T05:14:12;21.77;;;17.07;;
8139;SDS011;4111;50.972;7.072;2023-02-15T05:16:39;21.57;;;16.50;;
8139;SDS011;4111;50.972;7.072;2023-02-15T05:19:05;20.80;;;16.67;;
8139;SDS011;4111;50.972;7.072;2023-02-15T05:21:32;22.73;;;16.90;;
8139;SDS011;4111;50.972;7.072;2023-02-15T05:23:59;21.80;;;16.63;;
8139;SDS011;4111;50.972;7.072;2023-02-15T05:26:25;23.57;;;16.33;;
8139;SDS011;4111;50.972;7.072;2023-02-15T05:29:11;25.00;;;17.13;;
8139;SDS011;4111;50.972;7.072;2023-02-15T05:31:37;25.57;;;17.13;;
8139;SDS011;4111;50.972;7.072;2023-02-15T05:34:04;23.83;;;17.57;;
8139;SDS011;4111;50.972;7.072;2023-02-15T05:36:30;22.67;;;16.70;;
8139;SDS011;4111;50.972;7.072;2023-02-15T05:38:57;23.40;;;16.97;;
8139;SDS011;4111;50.972;7.072;2023-02-15T05:41:23;23.40;;;18.00;;
8139;SDS011;4111;50.972;7.072;2023-02-15T05:43:51;23.93;;;16.70;;
8139;SDS011;4111;50.972;7.072;2023-02-15T05:46:18;23.47;;;17.20;;
8139;SDS011;4111;50.972;7.072;2023-02-15T05:48:44;23.67;;;16.93;;
8139;SDS011;4111;50.972;7.072;2023-02-15T05:51:11;24.70;;;17.97;;
8139;SDS011;4111;50.972;7.072;2023-02-15T05:53:40;25.10;;;16.80;;
8139;SDS011;4111;50.972;7.072;2023-02-15T05:56:07;24.17;;;16.57;;
8139;SDS011;4111;50.972;7.072;2023-02-15T05:58:38;24.07;;;16.70;;
8139;SDS011;4111;50.972;7.072;2023-02-15T06:01:07;24.43;;;17.43;;
8139;SDS011;4111;50.972;7.072;2023-02-15T06:03:37;24.63;;;17.30;;
8139;SDS011;4111;50.972;7.072;2023-02-15T06:06:04;24.20;;;17.63;;
8139;SDS011;4111;50.972;7.072;2023-02-15T06:08:33;25.97;;;17.87;;
8139;SDS011;4111;50.972;7.072;2023-02-15T06:11:00;21.83;;;16.10;;
8139;SDS011;4111;50.972;7.072;2023-02-15T06:13:27;21.93;;;16.50;;
8139;SDS011;4111;50.972;7.072;2023-02-15T06:15:54;23.70;;;16.97;;
8139;SDS011;4111;50.972;7.072;2023-02-15T06:18:20;25.13;;;17.30;;
8139;SDS011;4111;50.972;7.072;2023-02-15T06:20:47;21.27;;;16.30;;
8139;SDS011;4111;50.972;7.072;2023-02-15T06:23:14;24.30;;;16.80;;
8139;SDS011;4111;50.972;7.072;2023-02-15T06:25:41;21.77;;;16.40;;
8139;SDS011;4111;50.972;7.072;2023-02-15T06:28:07;22.57;;;16.03;;
8139;SDS011;4111;50.972;7.072;2023-02-15T06:30:33;23.87;;;16.57;;
8139;SDS011;4111;50.972;7.072;2023-02-15T06:33:00;22.63;;;16.67;;
8139;SDS011;4111;50.972;7.072;2023-02-15T06:35:26;23.07;;;16.07;;
8139;SDS011;4111;50.972;7.072;2023-02-15T06:37:53;22.87;;;16.30;;
8139;SDS011;4111;50.972;7.072;2023-02-15T06:40:19;23.73;;;16.37;;
8139;SDS011;4111;50.972;7.072;2023-02-15T06:42:46;21.23;;;15.90;;
8139;SDS011;4111;50.972;7.072;2023-02-15T06:45:13;22.33;;;16.17;;
8139;SDS011;4111;50.972;7.072;2023-02-15T06:47:39;20.37;;;15.87;;
8139;SDS011;4111;50.972;7.072;2023-02-15T06:50:06;22.33;;;16.40;;
8139;SDS011;4111;50.972;7.072;2023-02-15T06:52:33;22.30;;;15.80;;
8139;SDS011;4111;50.972;7.072;2023-02-15T06:55:00;20.57;;;15.40;;
8139;SDS011;4111;50.972;7.072;2023-02-15T06:57:27;20.33;;;15.67;;
8139;SDS011;4111;50.972;7.072;2023-02-15T06:59:53;20.33;;;15.17;;
8139;SDS011;4111;50.972;7.072;2023-02-15T07:02:20;20.70;;;15.57;;
8139;SDS011;4111;50.972;7.072;2023-02-15T07:04:46;21.67;;;15.30;;
8139;SDS011;4111;50.972;7.072;2023-02-15T07:07:12;22.03;;;15.00;;
8139;SDS011;4111;50.972;7.072;2023-02-15T07:09:39;19.93;;;15.27;;
8139;SDS011;4111;50.972;7.072;2023-02-15T07:12:06;18.60;;;14.77;;
8139;SDS011;4111;50.972;7.072;2023-02-15T07:14:52;20.37;;;14.60;;
8139;SDS011;4111;50.972;7.072;2023-02-15T07:17:18;22.03;;;16.33;;
8139;SDS011;4111;50.972;7.072;2023-02-15T07:20:05;23.93;;;15.97;;
8139;SDS011;4111;50.972;7.072;2023-02-15T07:22:35;21.83;;;15.97;;
8139;SDS011;4111;50.972;7.072;2023-02-15T07:25:06;21.10;;;15.63;;
8139;SDS011;4111;50.972;7.072;2023-02-15T07:27:34;18.83;;;13.77;;
8139;SDS011;4111;50.972;7.072;2023-02-15T07:30:01;19.53;;;14.50;;
8139;SDS011;4111;50.972;7.072;2023-02-15T07:32:31;20.13;;;14.53;;
8139;SDS011;4111;50.972;7.072;2023-02-15T07:34:58;19.17;;;14.60;;
8139;SDS011;4111;50.972;7.072;2023-02-15T07:37:26;19.93;;;15.23;;
8139;SDS011;4111;50.972;7.072;2023-02-15T07:39:52;18.77;;;14.53;;
8139;SDS011;4111;50.972;7.072;2023-02-15T07:42:19;17.47;;;13.47;;
8139;SDS011;4111;50.972;7.072;2023-02-15T07:44:47;17.50;;;14.10;;
8139;SDS011;4111;50.972;7.072;2023-02-15T07:47:13;21.83;;;14.07;;
8139;SDS011;4111;50.972;7.072;2023-02-15T07:49:40;17.80;;;14.67;;
8139;SDS011;4111;50.972;7.072;2023-02-15T07:52:06;17.33;;;13.83;;
8139;SDS011;4111;50.972;7.072;2023-02-15T07:54:33;19.43;;;14.87;;
8139;SDS011;4111;50.972;7.072;2023-02-15T07:57:00;17.73;;;14.57;;
8139;SDS011;4111;50.972;7.072;2023-02-15T07:59:26;17.40;;;13.47;;
8139;SDS011;4111;50.972;7.072;2023-02-15T08:01:53;18.77;;;13.27;;
8139;SDS011;4111;50.972;7.072;2023-02-15T08:04:22;17.77;;;13.07;;
8139;SDS011;4111;50.972;7.072;2023-02-15T08:06:51;17.13;;;12.73;;
8139;SDS011;4111;50.972;7.072;2023-02-15T08:09:19;16.53;;;12.83;;
8139;SDS011;4111;50.972;7.072;2023-02-15T08:11:46;20.00;;;13.70;;
8139;SDS011;4111;50.972;7.072;2023-02-15T08:14:14;16.50;;;13.00;;
8139;SDS011;4111;50.972;7.072;2023-02-15T08:19:29;14.60;;;12.00;;
8139;SDS011;4111;50.972;7.072;2023-02-15T08:21:58;17.23;;;13.10;;
8139;SDS011;4111;50.972;7.072;2023-02-15T08:24:31;16.40;;;12.13;;
8139;SDS011;4111;50.972;7.072;2023-02-15T08:26:59;15.17;;;11.50;;
8139;SDS011;4111;50.972;7.072;2023-02-15T08:29:31;15.10;;;12.07;;
8139;SDS011;4111;50.972;7.072;2023-02-15T08:31:59;15.73;;;12.17;;
8139;SDS011;4111;50.972;7.072;2023-02-15T08:34:32;16.40;;;12.07;;
8139;SDS011;4111;50.972;7.072;2023-02-15T08:37:00;14.47;;;11.57;;
8139;SDS011;4111;50.972;7.072;2023-02-15T08:39:27;13.63;;;11.23;;
8139;SDS011;4111;50.972;7.072;2023-02-15T08:41:54;14.30;;;12.27;;
8139;SDS011;4111;50.972;7.072;2023-02-15T08:44:21;14.10;;;10.80;;
8139;SDS011;4111;50.972;7.072;2023-02-15T08:46:48;13.60;;;11.30;;
8139;SDS011;4111;50.972;7.072;2023-02-15T08:49:19;14.13;;;11.10;;
8139;SDS011;4111;50.972;7.072;2023-02-15T08:51:47;13.63;;;11.47;;
8139;SDS011;4111;50.972;7.072;2023-02-15T08:54:15;14.27;;;11.27;;
8139;SDS011;4111;50.972;7.072;2023-02-15T08:56:43;13.87;;;10.77;;
8139;SDS011;4111;50.972;7.072;2023-02-15T08:59:12;15.70;;;10.97;;
8139;SDS011;4111;50.972;7.072;2023-02-15T09:01:40;12.47;;;10.17;;
8139;SDS011;4111;50.972;7.072;2023-02-15T09:04:07;13.80;;;10.67;;
8139;SDS011;4111;50.972;7.072;2023-02-15T09:06:37;14.23;;;11.10;;
8139;SDS011;4111;50.972;7.072;2023-02-15T09:09:05;14.37;;;11.67;;
8139;SDS011;4111;50.972;7.072;2023-02-15T09:11:34;13.13;;;11.23;;
8139;SDS011;4111;50.972;7.072;2023-02-15T09:14:09;13.67;;;10.43;;
8139;SDS011;4111;50.972;7.072;2023-02-15T09:16:40;14.47;;;11.93;;
8139;SDS011;4111;50.972;7.072;2023-02-15T09:19:10;12.63;;;10.83;;
8139;SDS011;4111;50.972;7.072;2023-02-15T09:21:37;12.43;;;10.10;;
8139;SDS011;4111;50.972;7.072;2023-02-15T09:24:06;14.07;;;10.93;;
8139;SDS011;4111;50.972;7.072;2023-02-15T09:26:38;13.73;;;11.10;;
8139;SDS011;4111;50.972;7.072;2023-02-15T09:29:09;11.77;;;10.30;;
8139;SDS011;4111;50.972;7.072;2023-02-15T09:31:38;11.00;;;9.63;;
8139;SDS011;4111;50.972;7.072;2023-02-15T09:34:11;13.80;;;11.17;;
8139;SDS011;4111;50.972;7.072;2023-02-15T09:36:39;11.73;;;10.10;;
8139;SDS011;4111;50.972;7.072;2023-02-15T09:39:11;21.17;;;10.20;;
8139;SDS011;4111;50.972;7.072;2023-02-15T09:41:51;13.07;;;10.73;;
8139;SDS011;4111;50.972;7.072;2023-02-15T09:45:06;10.87;;;9.73;;
8139;SDS011;4111;50.972;7.072;2023-02-15T09:56:34;11.90;;;9.80;;
8139;SDS011;4111;50.972;7.072;2023-02-15T09:59:14;11.10;;;9.40;;
8139;SDS011;4111;50.972;7.072;2023-02-15T10:01:49;10.53;;;9.27;;
8139;SDS011;4111;50.972;7.072;2023-02-15T10:04:31;10.63;;;9.53;;
8139;SDS011;4111;50.972;7.072;2023-02-15T10:12:35;12.27;;;10.73;;
8139;SDS011;4111;50.972;7.072;2023-02-15T10:18:05;12.20;;;9.93;;
8139;SDS011;4111;50.972;7.072;2023-02-15T10:21:04;13.13;;;10.50;;
8139;SDS011;4111;50.972;7.072;2023-02-15T10:24:04;11.47;;;9.87;;
8139;SDS011;4111;50.972;7.072;2023-02-15T10:26:34;10.30;;;9.30;;
8139;SDS011;4111;50.972;7.072;2023-02-15T10:32:04;10.87;;;9.50;;
8139;SDS011;4111;50.972;7.072;2023-02-15T10:34:52;11.20;;;9.10;;
8139;SDS011;4111;50.972;7.072;2023-02-15T10:37:38;12.77;;;10.33;;
8139;SDS011;4111;50.972;7.072;2023-02-15T10:40:33;10.20;;;9.03;;
8139;SDS011;4111;50.972;7.072;2023-02-15T10:43:30;13.47;;;10.07;;
8139;SDS011;4111;50.972;7.072;2023-02-15T10:46:28;12.43;;;9.70;;
8139;SDS011;4111;50.972;7.072;2023-02-15T11:07:14;14.63;;;10.50;;
8139;SDS011;4111;50.972;7.072;2023-02-15T11:09:51;12.03;;;8.90;;
8139;SDS011;4111;50.972;7.072;2023-02-15T11:12:26;13.17;;;9.57;;
8139;SDS011;4111;50.972;7.072;2023-02-15T11:18:04;11.50;;;9.97;;
8139;SDS011;4111;50.972;7.072;2023-02-15T11:23:17;11.57;;;10.33;;
8139;SDS011;4111;50.972;7.072;2023-02-15T11:25:45;12.60;;;10.03;;
8139;SDS011;4111;50.972;7.072;2023-02-15T11:28:34;10.97;;;9.60;;
8139;SDS011;4111;50.972;7.072;2023-02-15T11:31:18;10.20;;;9.10;;
8139;SDS011;4111;50.972;7.072;2023-02-15T11:33:49;11.23;;;9.10;;
8139;SDS011;4111;50.972;7.072;2023-02-15T11:36:33;11.13;;;9.80;;
8139;SDS011;4111;50.972;7.072;2023-02-15T11:39:10;11.10;;;9.00;;
8139;SDS011;4111;50.972;7.072;2023-02-15T11:41:41;13.63;;;10.10;;
8139;SDS011;4111;50.972;7.072;2023-02-15T11:44:16;11.73;;;10.27;;
8139;SDS011;4111;50.972;7.072;2023-02-15T11:46:49;11.53;;;9.97;;
8139;SDS011;4111;50.972;7.072;2023-02-15T11:51:55;11.33;;;9.63;;
8139;SDS011;4111;50.972;7.072;2023-02-15T11:54:26;11.13;;;10.03;;
8139;SDS011;4111;50.972;7.072;2023-02-15T11:56:56;10.83;;;8.87;;
8139;SDS011;4111;50.972;7.072;2023-02-15T11:59:33;10.80;;;9.70;;
8139;SDS011;4111;50.972;7.072;2023-02-15T12:02:09;9.73;;;8.73;;
8139;SDS011;4111;50.972;7.072;2023-02-15T12:04:43;14.43;;;11.37;;
8139;SDS011;4111;50.972;7.072;2023-02-15T12:09:53;12.93;;;10.17;;
8139;SDS011;4111;50.972;7.072;2023-02-15T12:12:27;9.87;;;8.77;;
8139;SDS011;4111;50.972;7.072;2023-02-15T12:14:56;9.97;;;8.97;;
8139;SDS011;4111;50.972;7.072;2023-02-15T12:17:28;9.83;;;8.83;;
8139;SDS011;4111;50.972;7.072;2023-02-15T12:19:59;13.37;;;9.80;;
8139;SDS011;4111;50.972;7.072;2023-02-15T12:22:34;13.87;;;9.87;;
8139;SDS011;4111;50.972;7.072;2023-02-15T12:25:11;11.37;;;9.80;;
8139;SDS011;4111;50.972;7.072;2023-02-15T12:27:48;12.73;;;9.20;;
8139;SDS011;4111;50.972;7.072;2023-02-15T12:30:18;11.47;;;8.90;;
8139;SDS011;4111;50.972;7.072;2023-02-15T12:35:24;11.70;;;9.23;;
8139;SDS011;4111;50.972;7.072;2023-02-15T12:38:21;11.77;;;9.83;;
8139;SDS011;4111;50.972;7.072;2023-02-15T12:40:45;10.43;;;9.33;;
8139;SDS011;4111;50.972;7.072;2023-02-15T12:43:25;11.10;;;9.63;;
8139;SDS011;4111;50.972;7.072;2023-02-15T12:51:43;12.27;;;10.03;;
8139;SDS011;4111;50.972;7.072;2023-02-15T12:54:32;11.40;;;10.23;;
8139;SDS011;4111;50.972;7.072;2023-02-15T12:59:51;12.00;;;9.60;;
8139;SDS011;4111;50.972;7.072;2023-02-15T13:02:23;13.43;;;9.50;;
8139;SDS011;4111;50.972;7.072;2023-02-15T13:04:53;11.03;;;9.93;;
8139;SDS011;4111;50.972;7.072;2023-02-15T13:07:21;11.23;;;9.97;;
8139;SDS011;4111;50.972;7.072;2023-02-15T13:09:48;11.90;;;9.27;;
8139;SDS011;4111;50.972;7.072;2023-02-15T13:12:23;11.10;;;9.43;;
8139;SDS011;4111;50.972;7.072;2023-02-15T13:14:52;11.13;;;9.97;;
8139;SDS011;4111;50.972;7.072;2023-02-15T13:17:23;12.97;;;9.70;;
8139;SDS011;4111;50.972;7.072;2023-02-15T13:19:56;10.47;;;9.37;;
8139;SDS011;4111;50.972;7.072;2023-02-15T13:22:43;12.10;;;9.63;;
8139;SDS011;4111;50.972;7.072;2023-02-15T13:25:19;10.67;;;9.57;;
8139;SDS011;4111;50.972;7.072;2023-02-15T13:27:50;11.70;;;10.25;;
8139;SDS011;4111;50.972;7.072;2023-02-15T13:33:02;10.60;;;9.50;;
8139;SDS011;4111;50.972;7.072;2023-02-15T13:35:36;15.60;;;10.03;;
8139;SDS011;4111;50.972;7.072;2023-02-15T13:39:13;10.00;;;8.97;;
8139;SDS011;4111;50.972;7.072;2023-02-15T13:41:35;10.23;;;9.20;;
8139;SDS011;4111;50.972;7.072;2023-02-15T13:44:36;11.40;;;9.50;;
8139;SDS011;4111;50.972;7.072;2023-02-15T13:47:13;10.80;;;9.48;;
8139;SDS011;4111;50.972;7.072;2023-02-15T13:52:41;12.37;;;9.83;;
8139;SDS011;4111;50.972;7.072;2023-02-15T13:55:21;11.07;;;9.60;;
8139;SDS011;4111;50.972;7.072;2023-02-15T14:00:38;9.83;;;8.83;;
8139;SDS011;4111;50.972;7.072;2023-02-15T14:06:17;13.83;;;10.83;;
8139;SDS011;4111;50.972;7.072;2023-02-15T14:11:33;12.90;;;10.13;;
8139;SDS011;4111;50.972;7.072;2023-02-15T14:14:11;11.50;;;10.03;;
8139;SDS011;4111;50.972;7.072;2023-02-15T14:17:03;12.37;;;9.70;;
8139;SDS011;4111;50.972;7.072;2023-02-15T14:22:31;13.33;;;10.50;;
8139;SDS011;4111;50.972;7.072;2023-02-15T14:25:13;11.17;;;9.83;;
8139;SDS011;4111;50.972;7.072;2023-02-15T14:30:40;11.20;;;10.10;;
8139;SDS011;4111;50.972;7.072;2023-02-15T14:35:40;15.07;;;9.57;;
8139;SDS011;4111;50.972;7.072;2023-02-15T14:38:14;14.97;;;10.00;;
8139;SDS011;4111;50.972;7.072;2023-02-15T14:41:03;10.53;;;9.43;;
8139;SDS011;4111;50.972;7.072;2023-02-15T14:49:19;11.20;;;9.97;;
8139;SDS011;4111;50.972;7.072;2023-02-15T14:56:42;10.47;;;9.47;;
8139;SDS011;4111;50.972;7.072;2023-02-15T14:59:17;12.23;;;10.03;;
8139;SDS011;4111;50.972;7.072;2023-02-15T15:04:44;12.33;;;9.57;;
8139;SDS011;4111;50.972;7.072;2023-02-15T15:07:28;11.30;;;10.10;;
8139;SDS011;4111;50.972;7.072;2023-02-15T15:12:47;11.53;;;10.33;;
8139;SDS011;4111;50.972;7.072;2023-02-15T15:17:55;11.10;;;10.00;;
8139;SDS011;4111;50.972;7.072;2023-02-15T15:20:37;12.17;;;10.40;;
8139;SDS011;4111;50.972;7.072;2023-02-15T15:25:56;12.20;;;9.83;;
8139;SDS011;4111;50.972;7.072;2023-02-15T15:48:33;10.83;;;9.47;;
8139;SDS011;4111;50.972;7.072;2023-02-15T15:51:20;10.90;;;9.80;;
8139;SDS011;4111;50.972;7.072;2023-02-15T15:53:53;9.27;;;8.37;;
8139;SDS011;4111;50.972;7.072;2023-02-15T15:56:22;10.53;;;9.43;;
8139;SDS011;4111;50.972;7.072;2023-02-15T15:58:55;11.43;;;10.17;;
8139;SDS011;4111;50.972;7.072;2023-02-15T16:01:26;10.73;;;9.63;;
8139;SDS011;4111;50.972;7.072;2023-02-15T16:03:56;10.63;;;9.53;;
8139;SDS011;4111;50.972;7.072;2023-02-15T16:06:29;11.33;;;9.43;;
8139;SDS011;4111;50.972;7.072;2023-02-15T16:08:55;13.43;;;10.23;;
8139;SDS011;4111;50.972;7.072;2023-02-15T16:11:26;11.87;;;9.80;;
8139;SDS011;4111;50.972;7.072;2023-02-15T16:13:55;12.00;;;10.03;;
8139;SDS011;4111;50.972;7.072;2023-02-15T16:16:22;11.63;;;9.63;;
8139;SDS011;4111;50.972;7.072;2023-02-15T16:18:57;11.03;;;9.73;;
8139;SDS011;4111;50.972;7.072;2023-02-15T16:21:29;14.47;;;9.77;;
8139;SDS011;4111;50.972;7.072;2023-02-15T16:24:03;13.60;;;9.87;;
8139;SDS011;4111;50.972;7.072;2023-02-15T16:29:29;10.87;;;9.77;;
8139;SDS011;4111;50.972;7.072;2023-02-15T16:32:31;10.67;;;9.57;;
8139;SDS011;4111;50.972;7.072;2023-02-15T16:37:34;11.90;;;9.77;;
8139;SDS011;4111;50.972;7.072;2023-02-15T16:40:00;11.17;;;9.73;;
8139;SDS011;4111;50.972;7.072;2023-02-15T16:42:27;10.63;;;9.57;;
8139;SDS011;4111;50.972;7.072;2023-02-15T16:44:55;12.87;;;9.90;;
8139;SDS011;4111;50.972;7.072;2023-02-15T16:47:24;11.53;;;9.70;;
8139;SDS011;4111;50.972;7.072;2023-02-15T16:49:55;16.70;;;10.13;;
8139;SDS011;4111;50.972;7.072;2023-02-15T16:52:26;13.43;;;9.90;;
8139;SDS011;4111;50.972;7.072;2023-02-15T16:54:56;11.03;;;9.53;;
8139;SDS011;4111;50.972;7.072;2023-02-15T16:57:26;13.03;;;10.40;;
8139;SDS011;4111;50.972;7.072;2023-02-15T16:59:59;11.30;;;9.53;;
8139;SDS011;4111;50.972;7.072;2023-02-15T17:02:29;12.13;;;9.90;;
8139;SDS011;4111;50.972;7.072;2023-02-15T17:05:17;11.97;;;10.00;;
8139;SDS011;4111;50.972;7.072;2023-02-15T17:08:12;12.43;;;10.43;;
8139;SDS011;4111;50.972;7.072;2023-02-15T17:13:05;13.60;;;10.50;;
8139;SDS011;4111;50.972;7.072;2023-02-15T17:15:37;12.50;;;10.37;;
8139;SDS011;4111;50.972;7.072;2023-02-15T17:18:22;12.40;;;9.80;;
8139;SDS011;4111;50.972;7.072;2023-02-15T17:20:50;11.83;;;9.80;;
8139;SDS011;4111;50.972;7.072;2023-02-15T17:23:31;11.83;;;10.43;;
8139;SDS011;4111;50.972;7.072;2023-02-15T17:28:59;12.97;;;10.40;;
8139;SDS011;4111;50.972;7.072;2023-02-15T17:31:32;13.40;;;10.13;;
8139;SDS011;4111;50.972;7.072;2023-02-15T17:33:59;14.93;;;11.27;;
8139;SDS011;4111;50.972;7.072;2023-02-15T17:36:28;12.00;;;10.03;;
8139;SDS011;4111;50.972;7.072;2023-02-15T17:41:23;11.93;;;9.93;;
8139;SDS011;4111;50.972;7.072;2023-02-15T17:43:51;14.23;;;9.97;;
8139;SDS011;4111;50.972;7.072;2023-02-15T17:46:17;11.77;;;10.17;;
8139;SDS011;4111;50.972;7.072;2023-02-15T17:48:50;16.27;;;10.17;;
8139;SDS011;4111;50.972;7.072;2023-02-15T17:51:19;24.00;;;13.80;;
8139;SDS011;4111;50.972;7.072;2023-02-15T17:53:46;19.77;;;14.27;;
8139;SDS011;4111;50.972;7.072;2023-02-15T17:56:31;13.23;;;10.90;;
8139;SDS011;4111;50.972;7.072;2023-02-15T17:58:59;13.20;;;10.53;;
8139;SDS011;4111;50.972;7.072;2023-02-15T18:01:25;12.60;;;11.00;;
8139;SDS011;4111;50.972;7.072;2023-02-15T18:04:11;14.07;;;10.87;;
8139;SDS011;4111;50.972;7.072;2023-02-15T18:06:57;18.23;;;13.30;;